sensor_id;sensor_type;location;lat;lon;timestamp;temperature;humidity
16178;DHT22;8195;51.220;9.746;2023-05-01T00:05:48;8.60;97.20
16178;DHT22;8195;51.220;9.746;2023-05-01T00:16:10;8.50;97.20
16178;DHT22;8195;51.220;9.746;2023-05-01T00:26:32;8.60;97.20
16178;DHT22;8195;51.220;9.746;2023-05-01T00:36:52;8.50;97.20
16178;DHT22;8195;51.220;9.746;2023-05-01T00:57:59;8.50;97.20
16178;DHT22;8195;51.220;9.746;2023-05-01T01:08:34;8.60;97.20
16178;DHT22;8195;51.220;9.746;2023-05-01T01:30:16;8.50;97.20
16178;DHT22;8195;51.220;9.746;2023-05-01T01:40:58;8.50;97.20
16178;DHT22;8195;51.220;9.746;2023-05-01T01:51:31;8.50;97.20
16178;DHT22;8195;51.220;9.746;2023-05-01T02:02:00;8.30;97.20
16178;DHT22;8195;51.220;9.746;2023-05-01T02:12:23;8.20;97.20
16178;DHT22;8195;51.220;9.746;2023-05-01T02:22:48;8.20;97.20
16178;DHT22;8195;51.220;9.746;2023-05-01T02:33:16;8.20;97.20
16178;DHT22;8195;51.220;9.746;2023-05-01T02:43:37;8.20;97.20
16178;DHT22;8195;51.220;9.746;2023-05-01T02:54:00;8.30;97.20
16178;DHT22;8195;51.220;9.746;2023-05-01T03:04:21;8.20;97.20
16178;DHT22;8195;51.220;9.746;2023-05-01T03:14:42;8.20;97.20
16178;DHT22;8195;51.220;9.746;2023-05-01T03:25:03;8.20;97.20
16178;DHT22;8195;51.220;9.746;2023-05-01T03:35:27;8.20;97.20
16178;DHT22;8195;51.220;9.746;2023-05-01T03:45:48;8.20;97.20
16178;DHT22;8195;51.220;9.746;2023-05-01T03:56:09;8.10;97.20
16178;DHT22;8195;51.220;9.746;2023-05-01T04:06:30;8.10;97.20
16178;DHT22;8195;51.220;9.746;2023-05-01T04:17:00;8.00;97.20
16178;DHT22;8195;51.220;9.746;2023-05-01T04:27:22;8.10;97.20
16178;DHT22;8195;51.220;9.746;2023-05-01T04:37:45;8.10;97.20
16178;DHT22;8195;51.220;9.746;2023-05-01T04:48:06;8.10;97.20
16178;DHT22;8195;51.220;9.746;2023-05-01T04:58:27;8.40;97.20
16178;DHT22;8195;51.220;9.746;2023-05-01T05:08:51;8.70;97.20
16178;DHT22;8195;51.220;9.746;2023-05-01T05:30:25;9.10;97.20
16178;DHT22;8195;51.220;9.746;2023-05-01T05:40:46;9.80;97.20
16178;DHT22;8195;51.220;9.746;2023-05-01T05:51:13;9.80;97.20
16178;DHT22;8195;51.220;9.746;2023-05-01T06:01:34;10.20;97.20
16178;DHT22;8195;51.220;9.746;2023-05-01T06:22:37;10.40;97.20
16178;DHT22;8195;51.220;9.746;2023-05-01T06:32:58;10.90;97.20
16178;DHT22;8195;51.220;9.746;2023-05-01T06:43:19;11.30;97.20
16178;DHT22;8195;51.220;9.746;2023-05-01T06:53:49;11.50;97.20
16178;DHT22;8195;51.220;9.746;2023-05-01T07:04:58;11.80;97.20
16178;DHT22;8195;51.220;9.746;2023-05-01T07:15:24;11.70;97.20
16178;DHT22;8195;51.220;9.746;2023-05-01T07:26:03;11.90;97.20
16178;DHT22;8195;51.220;9.746;2023-05-01T07:36:30;12.40;97.20
16178;DHT22;8195;51.220;9.746;2023-05-01T07:47:04;12.80;97.20
16178;DHT22;8195;51.220;9.746;2023-05-01T07:57:32;13.30;97.20
16178;DHT22;8195;51.220;9.746;2023-05-01T08:07:58;13.70;97.20
16178;DHT22;8195;51.220;9.746;2023-05-01T08:18:22;13.90;97.20
16178;DHT22;8195;51.220;9.746;2023-05-01T08:28:56;14.20;97.20
16178;DHT22;8195;51.220;9.746;2023-05-01T09:34:25;16.70;97.20
16178;DHT22;8195;51.220;9.746;2023-05-01T09:56:26;17.90;97.20
16178;DHT22;8195;51.220;9.746;2023-05-01T10:06:53;18.60;97.20
16178;DHT22;8195;51.220;9.746;2023-05-01T10:17:39;19.10;97.20
16178;DHT22;8195;51.220;9.746;2023-05-01T10:27:58;19.00;97.20
16178;DHT22;8195;51.220;9.746;2023-05-01T10:38:31;18.90;97.20
16178;DHT22;8195;51.220;9.746;2023-05-01T11:00:09;19.10;97.20
16178;DHT22;8195;51.220;9.746;2023-05-01T11:22:14;18.70;97.20
16178;DHT22;8195;51.220;9.746;2023-05-01T11:32:41;18.80;97.20
16178;DHT22;8195;51.220;9.746;2023-05-01T11:43:07;19.00;97.20
16178;DHT22;8195;51.220;9.746;2023-05-01T11:53:34;18.70;97.20
16178;DHT22;8195;51.220;9.746;2023-05-01T12:04:04;19.10;97.20
16178;DHT22;8195;51.220;9.746;2023-05-01T12:25:21;18.80;96.50
16178;DHT22;8195;51.220;9.746;2023-05-01T12:36:01;18.90;97.20
16178;DHT22;8195;51.220;9.746;2023-05-01T12:46:28;18.80;97.20
16178;DHT22;8195;51.220;9.746;2023-05-01T12:56:50;18.80;97.20
16178;DHT22;8195;51.220;9.746;2023-05-01T13:07:15;18.50;97.20
16178;DHT22;8195;51.220;9.746;2023-05-01T13:17:40;18.60;97.20
16178;DHT22;8195;51.220;9.746;2023-05-01T13:28:06;18.40;97.20
16178;DHT22;8195;51.220;9.746;2023-05-01T13:38:31;18.60;97.20
16178;DHT22;8195;51.220;9.746;2023-05-01T13:49:02;18.80;97.20
16178;DHT22;8195;51.220;9.746;2023-05-01T13:59:35;18.40;97.20
16178;DHT22;8195;51.220;9.746;2023-05-01T14:09:58;18.30;97.20
16178;DHT22;8195;51.220;9.746;2023-05-01T14:30:56;17.70;97.20
16178;DHT22;8195;51.220;9.746;2023-05-01T14:41:27;17.70;97.20
16178;DHT22;8195;51.220;9.746;2023-05-01T14:51:52;17.30;97.20
16178;DHT22;8195;51.220;9.746;2023-05-01T15:02:13;17.30;97.20
16178;DHT22;8195;51.220;9.746;2023-05-01T15:12:59;17.30;97.20
16178;DHT22;8195;51.220;9.746;2023-05-01T15:23:47;17.30;97.20
16178;DHT22;8195;51.220;9.746;2023-05-01T15:34:30;17.00;97.20
16178;DHT22;8195;51.220;9.746;2023-05-01T15:44:58;16.70;97.20
16178;DHT22;8195;51.220;9.746;2023-05-01T15:55:54;16.60;97.20
16178;DHT22;8195;51.220;9.746;2023-05-01T16:06:25;16.60;97.20
16178;DHT22;8195;51.220;9.746;2023-05-01T16:16:55;16.60;97.20
16178;DHT22;8195;51.220;9.746;2023-05-01T16:27:52;16.60;97.20
16178;DHT22;8195;51.220;9.746;2023-05-01T16:38:14;16.50;97.20
16178;DHT22;8195;51.220;9.746;2023-05-01T16:48:35;16.60;97.20
16178;DHT22;8195;51.220;9.746;2023-05-01T16:58:56;16.50;97.20
16178;DHT22;8195;51.220;9.746;2023-05-01T17:09:18;16.40;97.20
16178;DHT22;8195;51.220;9.746;2023-05-01T17:41:11;15.90;97.20
16178;DHT22;8195;51.220;9.746;2023-05-01T17:52:09;15.60;97.20
16178;DHT22;8195;51.220;9.746;2023-05-01T18:02:41;15.40;97.20
16178;DHT22;8195;51.220;9.746;2023-05-01T18:13:05;15.20;97.20
16178;DHT22;8195;51.220;9.746;2023-05-01T18:23:26;15.00;97.20
16178;DHT22;8195;51.220;9.746;2023-05-01T18:33:51;14.90;97.20
16178;DHT22;8195;51.220;9.746;2023-05-01T18:44:16;14.80;97.20
16178;DHT22;8195;51.220;9.746;2023-05-01T18:54:37;14.50;97.20
16178;DHT22;8195;51.220;9.746;2023-05-01T19:04:58;14.30;97.20
16178;DHT22;8195;51.220;9.746;2023-05-01T19:15:48;14.00;97.20
16178;DHT22;8195;51.220;9.746;2023-05-01T19:26:24;13.70;97.20
16178;DHT22;8195;51.220;9.746;2023-05-01T19:36:45;13.50;97.20
16178;DHT22;8195;51.220;9.746;2023-05-01T19:57:53;13.30;97.20
16178;DHT22;8195;51.220;9.746;2023-05-01T20:08:14;13.10;97.20
16178;DHT22;8195;51.220;9.746;2023-05-01T20:18:35;13.00;97.20
16178;DHT22;8195;51.220;9.746;2023-05-01T20:29:25;12.80;97.20
16178;DHT22;8195;51.220;9.746;2023-05-01T20:50:27;12.80;97.20
16178;DHT22;8195;51.220;9.746;2023-05-01T21:00:48;12.90;97.20
16178;DHT22;8195;51.220;9.746;2023-05-01T21:11:08;12.90;97.20
16178;DHT22;8195;51.220;9.746;2023-05-01T21:21:29;12.80;97.20
16178;DHT22;8195;51.220;9.746;2023-05-01T21:31:50;12.80;97.20
16178;DHT22;8195;51.220;9.746;2023-05-01T21:42:13;12.60;97.20
16178;DHT22;8195;51.220;9.746;2023-05-01T21:52:34;12.50;97.20
16178;DHT22;8195;51.220;9.746;2023-05-01T22:02:55;12.30;97.20
16178;DHT22;8195;51.220;9.746;2023-05-01T22:13:18;12.20;97.20
16178;DHT22;8195;51.220;9.746;2023-05-01T22:34:44;12.00;97.20
16178;DHT22;8195;51.220;9.746;2023-05-01T22:45:05;12.00;97.20
16178;DHT22;8195;51.220;9.746;2023-05-01T22:55:26;12.00;97.20
16178;DHT22;8195;51.220;9.746;2023-05-01T23:05:47;11.90;97.20
16178;DHT22;8195;51.220;9.746;2023-05-01T23:16:11;11.90;97.20
16178;DHT22;8195;51.220;9.746;2023-05-01T23:26:32;11.90;97.20
16178;DHT22;8195;51.220;9.746;2023-05-01T23:36:58;11.90;97.20
16178;DHT22;8195;51.220;9.746;2023-05-01T23:47:20;11.80;97.20
16178;DHT22;8195;51.220;9.746;2023-05-01T23:57:41;11.80;97.20
